Time;durP1;ratioP1;P1;durP2;ratioP2;P2;SDS_P1;SDS_P2;PMS_P1;PMS_P2;Temp;Humidity;BMP_temperature;BMP_pressure;BME280_temperature;BME280_humidity;BME280_pressure;Samples;Min_cycle;Max_cycle;Signal;HPM_P1;HPM_P2
2023/06/25 00:01:28;;;;;;;5.97;5.17;;;;;;;;;;5051849;28;20220;-73
2023/06/25 00:04:33;;;;;;;5.37;4.87;;;;;;;;;;5055686;28;20207;-74
2023/06/25 00:07:38;;;;;;;6.40;5.57;;;;;;;;;;5056331;28;20180;-73
2023/06/25 00:10:42;;;;;;;6.47;5.00;;;;;;;;;;5055888;28;20196;-73
2023/06/25 00:13:47;;;;;;;7.60;4.87;;;;;;;;;;5056118;28;20199;-73
2023/06/25 00:16:57;;;;;;;5.53;4.90;;;;;;;;;;5055870;28;20180;-73
2023/06/25 00:20:01;;;;;;;6.97;5.30;;;;;;;;;;5055894;28;20180;-73
2023/06/25 00:23:05;;;;;;;7.03;5.33;;;;;;;;;;5043365;28;20559;-74
2023/06/25 00:26:10;;;;;;;5.90;4.73;;;;;;;;;;5055703;28;20180;-74
2023/06/25 00:29:13;;;;;;;9.20;5.10;;;;;;;;;;5055613;28;20176;-73
2023/06/25 00:32:17;;;;;;;6.67;5.53;;;;;;;;;;5054685;28;20220;-74
2023/06/25 00:35:27;;;;;;;6.87;5.20;;;;;;;;;;5054631;28;20215;-74
2023/06/25 00:38:33;;;;;;;5.17;4.67;;;;;;;;;;5054908;28;20520;-73
2023/06/25 00:41:39;;;;;;;5.80;5.20;;;;;;;;;;5054829;28;20216;-73
2023/06/25 00:44:43;;;;;;;9.03;5.30;;;;;;;;;;5054830;28;20184;-73
2023/06/25 00:47:48;;;;;;;6.50;5.23;;;;;;;;;;5054826;28;20176;-73
2023/06/25 00:50:52;;;;;;;6.13;5.17;;;;;;;;;;5055438;28;20176;-73
2023/06/25 00:53:56;;;;;;;5.83;5.23;;;;;;;;;;5043144;28;20176;-73
2023/06/25 00:57:03;;;;;;;6.20;5.30;;;;;;;;;;5043142;28;20180;-74
2023/06/25 01:00:14;;;;;;;5.63;5.00;;;;;;;;;;5054523;28;20184;-73
2023/06/25 01:03:30;;;;;;;6.70;5.17;;;;;;;;;;5054192;28;20176;-73
2023/06/25 01:06:41;;;;;;;6.20;5.30;;;;;;;;;;5054427;28;20176;-73
2023/06/25 01:09:48;;;;;;;8.13;5.37;;;;;;;;;;5054965;28;20516;-73
2023/06/25 01:12:54;;;;;;;6.67;5.30;;;;;;;;;;5053924;28;20220;-73
2023/06/25 01:15:58;;;;;;;6.30;4.73;;;;;;;;;;5053587;28;20560;-73
2023/06/25 01:19:02;;;;;;;6.23;5.63;;;;;;;;;;5054134;28;20176;-73
2023/06/25 01:22:07;;;;;;;7.40;5.50;;;;;;;;;;5053997;28;20211;-73
2023/06/25 01:25:12;;;;;;;6.77;5.23;;;;;;;;;;5054754;28;20512;-73
2023/06/25 01:28:20;;;;;;;5.70;5.03;;;;;;;;;;5054276;28;20515;-73
2023/06/25 01:31:25;;;;;;;5.77;4.97;;;;;;;;;;5054577;28;20220;-73
2023/06/25 01:34:29;;;;;;;7.97;5.23;;;;;;;;;;5053616;28;20180;-73
2023/06/25 01:37:34;;;;;;;7.33;5.13;;;;;;;;;;5054349;28;20623;-73
2023/06/25 01:40:38;;;;;;;7.00;5.63;;;;;;;;;;5042132;28;20180;-73
2023/06/25 01:43:42;;;;;;;7.07;5.50;;;;;;;;;;5053715;28;20618;-74
2023/06/25 01:46:47;;;;;;;9.00;5.73;;;;;;;;;;5054471;28;20176;-73
2023/06/25 01:49:51;;;;;;;7.17;5.60;;;;;;;;;;5053540;28;20172;-73
2023/06/25 01:52:55;;;;;;;7.50;5.00;;;;;;;;;;5053379;28;20682;-74
2023/06/25 01:55:59;;;;;;;5.63;5.03;;;;;;;;;;5053098;28;20571;-74
2023/06/25 01:59:04;;;;;;;6.07;5.03;;;;;;;;;;5053372;28;20520;-74
2023/06/25 02:02:08;;;;;;;7.80;5.97;;;;;;;;;;5053237;28;20220;-74
2023/06/25 02:05:12;;;;;;;8.27;5.33;;;;;;;;;;5060536;22;21328;-72
2023/06/25 02:08:16;;;;;;;8.43;5.33;;;;;;;;;;5024922;28;20207;-74
2023/06/25 02:11:20;;;;;;;6.93;5.47;;;;;;;;;;5014410;28;20695;-73
2023/06/25 02:14:24;;;;;;;6.07;5.47;;;;;;;;;;5013444;28;20182;-73
2023/06/25 02:17:29;;;;;;;7.07;5.03;;;;;;;;;;5014198;28;20525;-72
2023/06/25 02:20:33;;;;;;;6.73;5.83;;;;;;;;;;5014143;28;20524;-72
2023/06/25 02:23:37;;;;;;;7.90;6.43;;;;;;;;;;5013625;28;20525;-72
2023/06/25 02:26:41;;;;;;;8.13;5.73;;;;;;;;;;5012200;28;20632;-73
2023/06/25 02:29:47;;;;;;;8.13;5.97;;;;;;;;;;5012968;28;20178;-72
2023/06/25 02:32:51;;;;;;;7.57;6.03;;;;;;;;;;5013756;28;20221;-72
2023/06/25 02:35:56;;;;;;;8.10;6.53;;;;;;;;;;5001893;28;20205;-73
2023/06/25 02:39:00;;;;;;;7.63;6.07;;;;;;;;;;5013862;28;20636;-72
2023/06/25 02:42:04;;;;;;;7.80;6.07;;;;;;;;;;5012720;28;20221;-72
2023/06/25 02:45:08;;;;;;;8.57;6.20;;;;;;;;;;5012726;28;20178;-73
2023/06/25 02:48:12;;;;;;;7.43;6.07;;;;;;;;;;5012717;28;20518;-73
2023/06/25 02:51:16;;;;;;;10.70;6.17;;;;;;;;;;5013104;28;20216;-74
2023/06/25 02:54:20;;;;;;;9.23;6.00;;;;;;;;;;5013641;28;20543;-71
2023/06/25 02:57:29;;;;;;;8.00;6.03;;;;;;;;;;5013387;28;20189;-72
2023/06/25 03:00:33;;;;;;;8.03;6.33;;;;;;;;;;5012837;28;20177;-72
2023/06/25 03:03:37;;;;;;;8.43;6.07;;;;;;;;;;5012829;28;20185;-73
2023/06/25 03:06:42;;;;;;;8.77;6.10;;;;;;;;;;5012362;28;20201;-74
2023/06/25 03:09:47;;;;;;;7.83;6.07;;;;;;;;;;5001515;28;20178;-74
2023/06/25 03:12:51;;;;;;;9.43;6.60;;;;;;;;;;5012943;28;20220;-72
2023/06/25 03:15:56;;;;;;;7.40;5.90;;;;;;;;;;5013151;28;20217;-73
2023/06/25 03:19:00;;;;;;;9.93;6.23;;;;;;;;;;5012826;28;20197;-71
2023/06/25 03:22:04;;;;;;;7.87;6.00;;;;;;;;;;5012433;28;20217;-73
2023/06/25 03:25:11;;;;;;;10.73;6.83;;;;;;;;;;5012496;28;20178;-74
2023/06/25 03:28:19;;;;;;;9.07;6.77;;;;;;;;;;5012657;28;20178;-74
2023/06/25 03:31:23;;;;;;;10.63;6.50;;;;;;;;;;5001198;28;20699;-74
2023/06/25 03:34:31;;;;;;;7.57;6.53;;;;;;;;;;5001450;28;20185;-74
2023/06/25 03:37:35;;;;;;;7.93;6.47;;;;;;;;;;5012666;28;20182;-71
2023/06/25 03:40:40;;;;;;;8.60;6.13;;;;;;;;;;5004836;28;20178;-72
2023/06/25 03:43:44;;;;;;;8.60;6.53;;;;;;;;;;5017052;28;20182;-72
2023/06/25 03:46:48;;;;;;;10.43;6.50;;;;;;;;;;5016140;28;20178;-72
2023/06/25 03:49:53;;;;;;;7.90;6.93;;;;;;;;;;5016136;28;20637;-73
2023/06/25 03:52:57;;;;;;;7.73;6.60;;;;;;;;;;5005401;28;20213;-73
2023/06/25 03:56:02;;;;;;;9.40;6.60;;;;;;;;;;5015965;28;20209;-73
2023/06/25 03:59:06;;;;;;;8.07;6.53;;;;;;;;;;5016028;28;20628;-72
2023/06/25 04:02:10;;;;;;;7.47;6.30;;;;;;;;;;5015940;28;20217;-72
2023/06/25 04:05:14;;;;;;;8.30;6.70;;;;;;;;;;5015736;28;20209;-74
2023/06/25 04:08:19;;;;;;;7.97;6.20;;;;;;;;;;5015884;28;20181;-73
2023/06/25 04:11:23;;;;;;;10.33;6.80;;;;;;;;;;5004405;28;20565;-72
2023/06/25 04:14:27;;;;;;;8.13;6.53;;;;;;;;;;5015718;28;20181;-72
2023/06/25 04:17:31;;;;;;;7.33;6.40;;;;;;;;;;5015389;28;20186;-73
2023/06/25 04:20:35;;;;;;;8.40;6.60;;;;;;;;;;5016382;28;20182;-73
2023/06/25 04:23:39;;;;;;;8.73;6.30;;;;;;;;;;5015325;28;20177;-71
2023/06/25 04:26:44;;;;;;;9.53;6.73;;;;;;;;;;5015246;28;20517;-72
2023/06/25 04:29:49;;;;;;;9.93;6.40;;;;;;;;;;5015440;28;20177;-72
2023/06/25 04:32:54;;;;;;;7.17;6.33;;;;;;;;;;5003797;28;20565;-74
2023/06/25 04:35:59;;;;;;;8.37;6.50;;;;;;;;;;5015249;28;20214;-73
2023/06/25 04:39:04;;;;;;;9.30;6.40;;;;;;;;;;5003966;28;20189;-73
2023/06/25 04:42:10;;;;;;;10.87;6.43;;;;;;;;;;5004175;28;20209;-73
2023/06/25 04:45:15;;;;;;;9.67;6.83;;;;;;;;;;5014600;28;20185;-71
2023/06/25 04:48:19;;;;;;;10.27;6.40;;;;;;;;;;5015607;28;20182;-72
2023/06/25 04:51:23;;;;;;;7.37;6.37;;;;;;;;;;5014396;28;20217;-73
2023/06/25 04:54:27;;;;;;;11.53;6.83;;;;;;;;;;5015637;28;20182;-71
2023/06/25 04:57:31;;;;;;;11.37;6.50;;;;;;;;;;5015631;28;20213;-72
2023/06/25 05:00:35;;;;;;;10.13;6.97;;;;;;;;;;5015598;28;20181;-72
2023/06/25 05:03:40;;;;;;;12.30;7.60;;;;;;;;;;5015283;28;20201;-73
2023/06/25 05:06:43;;;;;;;9.53;6.30;;;;;;;;;;5015169;28;20205;-70
2023/06/25 05:09:48;;;;;;;9.60;7.30;;;;;;;;;;5014492;28;20189;-73
2023/06/25 05:12:52;;;;;;;10.47;7.50;;;;;;;;;;5015091;28;20220;-71
2023/06/25 05:15:57;;;;;;;9.67;7.37;;;;;;;;;;5015278;28;20205;-71
2023/06/25 05:19:01;;;;;;;9.07;6.87;;;;;;;;;;5014345;28;20181;-71
2023/06/25 05:22:05;;;;;;;8.70;7.13;;;;;;;;;;5003108;28;20696;-71
2023/06/25 05:25:09;;;;;;;13.93;7.00;;;;;;;;;;5014863;28;20197;-71
2023/06/25 05:28:13;;;;;;;10.80;7.27;;;;;;;;;;5015109;28;20169;-73
2023/06/25 05:31:17;;;;;;;8.63;6.87;;;;;;;;;;5014719;28;20216;-74
2023/06/25 05:34:22;;;;;;;10.83;6.67;;;;;;;;;;5015276;28;20181;-72
2023/06/25 05:37:26;;;;;;;12.27;7.40;;;;;;;;;;5014606;28;20205;-73
2023/06/25 05:40:31;;;;;;;9.33;6.93;;;;;;;;;;5014591;28;20182;-74
2023/06/25 05:43:35;;;;;;;9.83;7.60;;;;;;;;;;5014301;28;20177;-74
2023/06/25 05:46:39;;;;;;;7.00;6.30;;;;;;;;;;5014482;28;20193;-73
2023/06/25 05:49:43;;;;;;;8.40;7.23;;;;;;;;;;5014630;28;20197;-73
2023/06/25 05:52:47;;;;;;;12.30;7.50;;;;;;;;;;5013628;28;20216;-74
2023/06/25 05:55:51;;;;;;;9.77;7.43;;;;;;;;;;5014275;28;20185;-74
2023/06/25 05:58:55;;;;;;;9.17;6.40;;;;;;;;;;5014571;28;20182;-74
2023/06/25 06:01:59;;;;;;;9.63;7.33;;;;;;;;;;5013393;28;20687;-75
2023/06/25 06:05:04;;;;;;;10.17;7.00;;;;;;;;;;5014035;28;20200;-74
2023/06/25 06:08:08;;;;;;;9.07;6.97;;;;;;;;;;5014400;28;20521;-74
2023/06/25 06:11:12;;;;;;;8.60;6.87;;;;;;;;;;5013628;28;20208;-74
2023/06/25 06:14:16;;;;;;;6.90;6.17;;;;;;;;;;5014099;28;20186;-74
2023/06/25 06:17:21;;;;;;;8.83;7.20;;;;;;;;;;5013710;28;20205;-74
2023/06/25 06:20:24;;;;;;;8.90;6.67;;;;;;;;;;5013119;28;20181;-74
2023/06/25 06:23:28;;;;;;;10.53;6.80;;;;;;;;;;5013899;28;20541;-74
2023/06/25 06:26:35;;;;;;;7.60;6.47;;;;;;;;;;5014299;28;20178;-73
2023/06/25 06:29:39;;;;;;;11.97;7.00;;;;;;;;;;5013899;28;20174;-73
2023/06/25 06:32:43;;;;;;;7.90;6.73;;;;;;;;;;5013657;28;20213;-73
2023/06/25 06:35:47;;;;;;;10.40;6.03;;;;;;;;;;5013971;28;20178;-73
2023/06/25 06:38:51;;;;;;;8.10;6.30;;;;;;;;;;5013870;28;20185;-73
2023/06/25 06:41:55;;;;;;;8.40;6.63;;;;;;;;;;5014031;28;20212;-74
2023/06/25 06:45:02;;;;;;;8.00;6.77;;;;;;;;;;5013009;28;20185;-73
2023/06/25 06:48:08;;;;;;;7.60;6.07;;;;;;;;;;5013678;28;20522;-73
2023/06/25 06:51:12;;;;;;;10.80;6.40;;;;;;;;;;5013687;28;20213;-73
2023/06/25 06:54:17;;;;;;;9.30;6.27;;;;;;;;;;5013424;28;20185;-73
2023/06/25 06:57:21;;;;;;;8.10;6.17;;;;;;;;;;5013651;28;20209;-73
2023/06/25 07:00:26;;;;;;;9.57;6.20;;;;;;;;;;5012838;28;20173;-72
2023/06/25 07:03:30;;;;;;;9.10;6.30;;;;;;;;;;5013373;28;20182;-73
2023/06/25 07:06:34;;;;;;;6.30;5.70;;;;;;;;;;5012564;28;20201;-73
2023/06/25 07:09:51;;;;;;;21.00;7.23;;;;;;;;;;5012544;28;20186;-73
2023/06/25 07:12:56;;;;;;;8.50;5.93;;;;;;;;;;5014526;28;20213;-73
2023/06/25 07:16:00;;;;;;;8.37;6.00;;;;;;;;;;5016477;28;20173;-72
2023/06/25 07:19:04;;;;;;;7.60;6.07;;;;;;;;;;5017366;28;20656;-73
2023/06/25 07:22:08;;;;;;;7.07;6.27;;;;;;;;;;5017276;28;20209;-73
2023/06/25 07:25:12;;;;;;;7.37;6.00;;;;;;;;;;5017117;28;20190;-73
2023/06/25 07:28:16;;;;;;;7.77;5.80;;;;;;;;;;5017086;28;20174;-73
2023/06/25 07:31:20;;;;;;;9.37;5.87;;;;;;;;;;5016961;28;20567;-73
2023/06/25 07:34:24;;;;;;;6.70;5.67;;;;;;;;;;5016301;28;20187;-73
2023/06/25 07:37:28;;;;;;;6.23;5.30;;;;;;;;;;5016872;28;20215;-73
2023/06/25 07:40:32;;;;;;;5.60;4.87;;;;;;;;;;5016124;28;20188;-73
2023/06/25 07:43:36;;;;;;;9.80;6.00;;;;;;;;;;5016834;28;20517;-71
2023/06/25 07:46:40;;;;;;;14.15;5.72;;;;;;;;;;5016003;28;20637;-71
2023/06/25 07:49:44;;;;;;;7.53;5.80;;;;;;;;;;5016831;28;20183;-71
2023/06/25 07:52:48;;;;;;;9.57;5.82;;;;;;;;;;5015850;28;20224;-71
2023/06/25 07:55:53;;;;;;;7.78;5.30;;;;;;;;;;5016646;28;20531;-71
2023/06/25 07:58:57;;;;;;;7.05;4.90;;;;;;;;;;5016494;28;20537;-71
2023/06/25 08:02:01;;;;;;;7.13;5.03;;;;;;;;;;5016440;28;20218;-71
2023/06/25 08:05:05;;;;;;;5.88;5.03;;;;;;;;;;5016598;28;20524;-72
2023/06/25 08:08:09;;;;;;;5.88;5.00;;;;;;;;;;5016372;28;20182;-71
2023/06/25 08:11:13;;;;;;;6.18;5.25;;;;;;;;;;5016257;28;20217;-71
2023/06/25 08:14:18;;;;;;;6.35;5.05;;;;;;;;;;5016571;28;20520;-71
2023/06/25 08:17:22;;;;;;;7.22;4.63;;;;;;;;;;5016428;28;20695;-71
2023/06/25 08:20:27;;;;;;;6.82;4.90;;;;;;;;;;5016124;28;20632;-71
2023/06/25 08:23:31;;;;;;;5.75;4.55;;;;;;;;;;5016185;28;20178;-71
2023/06/25 08:26:35;;;;;;;5.30;4.80;;;;;;;;;;5016039;28;20204;-71
2023/06/25 08:29:41;;;;;;;5.70;5.10;;;;;;;;;;5003880;28;20202;-72
2023/06/25 08:32:46;;;;;;;7.00;4.57;;;;;;;;;;5016021;28;20205;-71
2023/06/25 08:35:50;;;;;;;11.20;5.38;;;;;;;;;;5015900;28;20537;-71
2023/06/25 08:38:54;;;;;;;6.35;4.85;;;;;;;;;;5015711;28;20186;-72
2023/06/25 08:41:59;;;;;;;6.38;4.72;;;;;;;;;;5015683;28;20217;-72
2023/06/25 08:45:03;;;;;;;6.38;4.68;;;;;;;;;;5015983;28;20178;-71
2023/06/25 08:48:13;;;;;;;5.82;4.32;;;;;;;;;;5015859;28;20178;-72
2023/06/25 08:51:24;;;;;;;7.03;5.13;;;;;;;;;;5015741;28;20214;-71
2023/06/25 08:54:28;;;;;;;8.85;5.22;;;;;;;;;;5003639;28;20182;-71
2023/06/25 08:57:32;;;;;;;7.65;5.30;;;;;;;;;;5015623;28;20229;-71
2023/06/25 09:00:36;;;;;;;10.10;5.03;;;;;;;;;;5014606;28;20535;-71
2023/06/25 09:03:41;;;;;;;5.28;4.78;;;;;;;;;;5015338;28;20186;-71
2023/06/25 09:06:46;;;;;;;5.95;5.18;;;;;;;;;;5015145;28;20201;-72
2023/06/25 09:09:53;;;;;;;6.10;4.68;;;;;;;;;;5015328;28;20186;-72
2023/06/25 09:13:00;;;;;;;5.55;4.63;;;;;;;;;;5015101;28;20213;-72
2023/06/25 09:16:10;;;;;;;4.65;4.25;;;;;;;;;;5014592;28;20182;-72
2023/06/25 09:19:21;;;;;;;4.18;3.88;;;;;;;;;;5015075;28;20182;-72
2023/06/25 09:22:25;;;;;;;6.20;4.78;;;;;;;;;;5014971;28;20217;-72
2023/06/25 09:25:30;;;;;;;4.60;4.18;;;;;;;;;;5014997;28;20645;-72
2023/06/25 09:28:45;;;;;;;5.05;4.30;;;;;;;;;;5015129;28;20174;-72
2023/06/25 09:31:49;;;;;;;5.20;4.47;;;;;;;;;;5014884;28;20217;-71
2023/06/25 09:34:53;;;;;;;9.07;4.68;;;;;;;;;;5014915;28;20189;-72
2023/06/25 09:37:57;;;;;;;7.07;4.63;;;;;;;;;;5013899;28;20202;-72
2023/06/25 09:41:02;;;;;;;4.90;4.43;;;;;;;;;;5014604;28;20177;-72
2023/06/25 09:44:06;;;;;;;5.20;4.70;;;;;;;;;;5014053;28;20174;-72
2023/06/25 09:47:14;;;;;;;5.65;4.30;;;;;;;;;;5014735;28;20174;-72
2023/06/25 09:50:28;;;;;;;5.53;4.50;;;;;;;;;;5015047;28;20177;-72
2023/06/25 09:53:37;;;;;;;10.55;4.30;;;;;;;;;;5015016;28;20186;-72
2023/06/25 09:56:43;;;;;;;4.25;3.85;;;;;;;;;;5013608;28;20182;-72
2023/06/25 09:59:48;;;;;;;4.38;3.88;;;;;;;;;;5013886;28;20178;-72
2023/06/25 10:02:52;;;;;;;6.95;4.15;;;;;;;;;;5013420;28;20210;-72
2023/06/25 10:05:56;;;;;;;5.85;4.57;;;;;;;;;;5014095;28;20209;-72
2023/06/25 10:09:02;;;;;;;5.80;4.50;;;;;;;;;;5014391;28;20178;-73
2023/06/25 10:12:09;;;;;;;4.80;4.32;;;;;;;;;;5014304;28;20214;-72
2023/06/25 10:15:13;;;;;;;4.53;4.05;;;;;;;;;;5014316;28;20177;-72
2023/06/25 10:18:22;;;;;;;4.85;4.18;;;;;;;;;;5013919;28;20209;-72
2023/06/25 10:21:27;;;;;;;4.75;4.22;;;;;;;;;;5014131;28;20218;-72
2023/06/25 10:24:41;;;;;;;5.07;4.63;;;;;;;;;;5013908;28;20186;-72
2023/06/25 10:27:45;;;;;;;6.50;5.10;;;;;;;;;;5013851;28;20175;-72
2023/06/25 10:30:49;;;;;;;5.70;4.90;;;;;;;;;;5014324;28;20534;-72
2023/06/25 10:34:08;;;;;;;5.30;4.40;;;;;;;;;;5013881;28;20190;-72
2023/06/25 10:37:13;;;;;;;5.20;4.70;;;;;;;;;;5013095;28;20198;-72
2023/06/25 10:40:18;;;;;;;5.43;4.80;;;;;;;;;;5013728;28;20186;-72
2023/06/25 10:43:21;;;;;;;6.25;4.65;;;;;;;;;;5013600;28;20181;-72
2023/06/25 10:46:30;;;;;;;6.13;4.97;;;;;;;;;;5012779;28;20173;-72
2023/06/25 10:49:35;;;;;;;5.15;4.68;;;;;;;;;;5013315;28;20190;-72
2023/06/25 10:52:39;;;;;;;5.93;4.90;;;;;;;;;;5013435;28;20222;-72
2023/06/25 10:55:53;;;;;;;5.65;4.75;;;;;;;;;;5013679;28;20193;-72
2023/06/25 10:58:58;;;;;;;6.32;4.50;;;;;;;;;;5013600;28;20214;-72
2023/06/25 11:02:18;;;;;;;5.35;4.85;;;;;;;;;;5012811;28;20221;-72
2023/06/25 11:05:41;;;;;;;6.10;5.35;;;;;;;;;;5013271;28;20205;-72
2023/06/25 11:08:47;;;;;;;6.20;5.45;;;;;;;;;;5013555;28;20175;-72
2023/06/25 11:11:52;;;;;;;5.70;4.68;;;;;;;;;;5013765;28;20217;-72
2023/06/25 11:14:56;;;;;;;6.15;5.10;;;;;;;;;;5013486;28;20541;-72
2023/06/25 11:18:03;;;;;;;5.57;5.07;;;;;;;;;;5013628;28;20680;-72
2023/06/25 11:21:08;;;;;;;5.70;5.15;;;;;;;;;;5013414;28;20225;-73
2023/06/25 11:24:13;;;;;;;5.47;4.60;;;;;;;;;;5013408;28;20182;-72
2023/06/25 11:27:25;;;;;;;4.88;4.32;;;;;;;;;;5013227;28;20513;-72
2023/06/25 11:30:29;;;;;;;5.57;5.07;;;;;;;;;;5013688;28;20190;-72
2023/06/25 11:33:33;;;;;;;5.70;4.68;;;;;;;;;;5013324;28;20640;-72
2023/06/25 11:36:38;;;;;;;5.90;5.30;;;;;;;;;;5012539;28;20178;-72
2023/06/25 11:39:46;;;;;;;5.50;4.72;;;;;;;;;;5012980;28;20206;-72
2023/06/25 11:42:51;;;;;;;5.75;5.18;;;;;;;;;;5012453;28;20213;-72
2023/06/25 11:46:00;;;;;;;4.97;4.57;;;;;;;;;;5013337;28;20182;-72
2023/06/25 11:49:04;;;;;;;7.68;5.47;;;;;;;;;;5013195;28;20174;-72
2023/06/25 11:52:09;;;;;;;5.28;4.78;;;;;;;;;;5012096;28;20214;-72
2023/06/25 11:55:13;;;;;;;5.72;5.15;;;;;;;;;;5012173;28;20178;-72
2023/06/25 11:58:17;;;;;;;7.22;5.10;;;;;;;;;;5012779;28;20214;-73
2023/06/25 12:01:21;;;;;;;6.03;5.43;;;;;;;;;;5016475;28;20696;-72
2023/06/25 12:04:25;;;;;;;5.47;4.97;;;;;;;;;;5015930;28;20182;-72
2023/06/25 12:07:29;;;;;;;8.15;5.35;;;;;;;;;;5015661;28;20182;-73
2023/06/25 12:10:33;;;;;;;6.18;5.22;;;;;;;;;;5015523;28;20181;-72
2023/06/25 12:13:37;;;;;;;6.25;5.15;;;;;;;;;;5016553;28;20181;-72
2023/06/25 12:16:41;;;;;;;5.70;5.20;;;;;;;;;;5015671;28;20185;-73
2023/06/25 12:19:45;;;;;;;5.85;5.32;;;;;;;;;;5016075;28;20542;-72
2023/06/25 12:22:50;;;;;;;5.30;4.85;;;;;;;;;;5016575;28;20688;-72
2023/06/25 12:25:54;;;;;;;5.38;4.88;;;;;;;;;;5015260;28;20178;-72
2023/06/25 12:28:59;;;;;;;5.70;5.10;;;;;;;;;;5016054;28;20186;-72
2023/06/25 12:32:04;;;;;;;5.30;4.80;;;;;;;;;;5016093;28;20213;-72
2023/06/25 12:35:09;;;;;;;5.57;5.07;;;;;;;;;;5015867;28;20181;-72
2023/06/25 12:38:13;;;;;;;5.50;5.00;;;;;;;;;;5014995;28;20205;-73
2023/06/25 12:41:18;;;;;;;6.13;5.45;;;;;;;;;;5016068;28;20217;-72
2023/06/25 12:44:22;;;;;;;6.05;5.45;;;;;;;;;;5015222;28;20190;-73
2023/06/25 12:47:26;;;;;;;4.80;4.40;;;;;;;;;;5014886;28;20186;-73
2023/06/25 12:50:30;;;;;;;7.30;5.10;;;;;;;;;;5015843;28;20537;-72
2023/06/25 12:53:34;;;;;;;7.20;5.32;;;;;;;;;;5015771;28;20197;-72
2023/06/25 12:56:38;;;;;;;5.90;5.00;;;;;;;;;;5003452;28;20198;-73
2023/06/25 12:59:43;;;;;;;6.32;5.45;;;;;;;;;;5015368;28;20209;-72
2023/06/25 13:02:47;;;;;;;6.20;5.60;;;;;;;;;;5014631;28;20209;-72
2023/06/25 13:05:51;;;;;;;5.22;4.70;;;;;;;;;;5015349;28;20197;-72
2023/06/25 13:08:55;;;;;;;5.47;5.00;;;;;;;;;;5015518;28;20190;-73
2023/06/25 13:11:59;;;;;;;5.85;5.25;;;;;;;;;;5014353;28;20692;-72
2023/06/25 13:15:07;;;;;;;5.63;5.00;;;;;;;;;;5015430;28;20177;-72
2023/06/25 13:18:11;;;;;;;5.72;5.22;;;;;;;;;;5015032;28;20226;-72
2023/06/25 13:21:15;;;;;;;6.55;5.03;;;;;;;;;;5015456;28;20205;-72
2023/06/25 13:24:19;;;;;;;5.55;4.68;;;;;;;;;;5015213;28;20178;-72
2023/06/25 13:27:23;;;;;;;5.18;4.68;;;;;;;;;;5015215;28;20185;-72
2023/06/25 13:30:27;;;;;;;6.82;5.43;;;;;;;;;;5014340;28;20170;-73
2023/06/25 13:33:31;;;;;;;5.40;4.90;;;;;;;;;;5014625;28;20201;-73
2023/06/25 13:36:35;;;;;;;6.13;5.53;;;;;;;;;;5014695;28;20201;-72
2023/06/25 13:39:39;;;;;;;5.53;5.03;;;;;;;;;;5013894;28;20221;-72
2023/06/25 13:42:44;;;;;;;6.25;5.38;;;;;;;;;;5013805;28;20217;-72
2023/06/25 13:45:48;;;;;;;5.53;5.03;;;;;;;;;;5014841;28;20186;-72
2023/06/25 13:48:52;;;;;;;6.30;4.65;;;;;;;;;;5014536;28;20522;-73
2023/06/25 13:51:56;;;;;;;5.10;4.60;;;;;;;;;;5014686;28;20214;-73
2023/06/25 13:55:00;;;;;;;7.25;5.38;;;;;;;;;;5014355;28;20186;-73
2023/06/25 13:58:05;;;;;;;5.50;5.00;;;;;;;;;;5014303;28;20181;-73
2023/06/25 14:01:09;;;;;;;6.22;4.60;;;;;;;;;;5014234;28;20221;-73
2023/06/25 14:04:13;;;;;;;6.55;4.85;;;;;;;;;;5014261;28;20174;-73
2023/06/25 14:07:17;;;;;;;5.65;5.05;;;;;;;;;;5014420;28;20182;-72
2023/06/25 14:10:21;;;;;;;5.35;4.85;;;;;;;;;;5013265;28;20169;-72
2023/06/25 14:13:26;;;;;;;5.05;4.55;;;;;;;;;;5014002;28;20571;-72
2023/06/25 14:16:32;;;;;;;7.07;5.30;;;;;;;;;;5014153;28;20182;-72
2023/06/25 14:19:36;;;;;;;6.35;5.65;;;;;;;;;;5014049;28;20209;-72
2023/06/25 14:22:40;;;;;;;5.47;4.97;;;;;;;;;;5013723;28;20225;-72
2023/06/25 14:25:44;;;;;;;5.28;4.78;;;;;;;;;;5013734;28;20526;-72
2023/06/25 14:28:48;;;;;;;5.88;5.28;;;;;;;;;;5013930;28;20182;-72
2023/06/25 14:31:52;;;;;;;5.47;4.95;;;;;;;;;;5013799;28;20217;-72
2023/06/25 14:34:56;;;;;;;5.72;5.07;;;;;;;;;;5013818;28;20553;-72
2023/06/25 14:38:00;;;;;;;5.53;5.03;;;;;;;;;;5014027;28;20625;-72
2023/06/25 14:41:04;;;;;;;6.50;5.20;;;;;;;;;;5013406;28;20692;-72
2023/06/25 14:44:09;;;;;;;5.35;4.85;;;;;;;;;;5013238;28;20181;-72
2023/06/25 14:47:13;;;;;;;6.10;5.47;;;;;;;;;;5013718;28;20178;-72
2023/06/25 14:50:17;;;;;;;5.65;4.85;;;;;;;;;;5013359;28;20542;-72
2023/06/25 14:53:21;;;;;;;5.28;4.78;;;;;;;;;;5013909;28;20189;-72
2023/06/25 14:56:25;;;;;;;6.70;4.78;;;;;;;;;;5013319;28;20182;-72
2023/06/25 14:59:29;;;;;;;5.50;5.00;;;;;;;;;;5012948;28;20217;-72
2023/06/25 15:02:34;;;;;;;5.55;5.05;;;;;;;;;;5012425;28;20221;-72
2023/06/25 15:05:39;;;;;;;6.95;5.43;;;;;;;;;;5012334;28;20201;-72
2023/06/25 15:08:43;;;;;;;5.82;5.22;;;;;;;;;;5013728;28;20516;-72
2023/06/25 15:11:48;;;;;;;5.45;4.88;;;;;;;;;;5001247;28;20217;-72
2023/06/25 15:14:52;;;;;;;5.78;4.72;;;;;;;;;;5013682;28;20177;-72
2023/06/25 15:17:55;;;;;;;5.53;5.05;;;;;;;;;;5012421;28;20181;-72
2023/06/25 15:21:00;;;;;;;6.18;5.10;;;;;;;;;;5013547;28;20178;-72
2023/06/25 15:24:05;;;;;;;5.68;5.07;;;;;;;;;;5013488;28;20186;-72
2023/06/25 15:27:09;;;;;;;5.38;4.85;;;;;;;;;;5012691;28;20182;-72
2023/06/25 15:30:13;;;;;;;6.28;5.68;;;;;;;;;;5013357;28;20628;-72
2023/06/25 15:33:17;;;;;;;5.22;4.72;;;;;;;;;;5013414;28;20182;-72
2023/06/25 15:36:21;;;;;;;5.82;5.15;;;;;;;;;;5016315;28;20182;-72
2023/06/25 15:39:25;;;;;;;6.03;5.43;;;;;;;;;;5016733;28;20229;-72
2023/06/25 15:42:30;;;;;;;5.30;4.78;;;;;;;;;;5016902;28;20221;-72
2023/06/25 15:45:34;;;;;;;5.57;5.07;;;;;;;;;;5016690;28;20182;-72
2023/06/25 15:48:38;;;;;;;6.47;5.18;;;;;;;;;;5016108;28;20182;-72
2023/06/25 15:51:43;;;;;;;6.00;5.40;;;;;;;;;;5016812;28;20217;-72
2023/06/25 15:54:49;;;;;;;6.45;5.15;;;;;;;;;;5016539;28;20181;-72
2023/06/25 15:57:54;;;;;;;6.68;5.50;;;;;;;;;;5017069;28;20186;-72
2023/06/25 16:00:58;;;;;;;5.50;5.00;;;;;;;;;;5015712;28;20210;-72
2023/06/25 16:04:02;;;;;;;7.25;5.80;;;;;;;;;;5016677;28;20517;-72
2023/06/25 16:07:06;;;;;;;5.65;5.13;;;;;;;;;;5016306;28;20546;-72
2023/06/25 16:10:11;;;;;;;6.35;5.72;;;;;;;;;;5016309;28;20193;-71
2023/06/25 16:13:15;;;;;;;5.95;5.40;;;;;;;;;;5015582;28;20198;-72
2023/06/25 16:16:20;;;;;;;5.68;5.07;;;;;;;;;;5015833;28;20190;-72
2023/06/25 16:19:24;;;;;;;5.57;5.00;;;;;;;;;;5015436;28;20205;-72
2023/06/25 16:22:28;;;;;;;5.78;5.28;;;;;;;;;;5016016;28;20220;-72
2023/06/25 16:25:32;;;;;;;7.43;5.38;;;;;;;;;;5016277;28;20185;-72
2023/06/25 16:28:38;;;;;;;6.20;5.32;;;;;;;;;;5015946;28;20201;-72
2023/06/25 16:31:42;;;;;;;5.43;4.90;;;;;;;;;;5016313;28;20561;-72
2023/06/25 16:34:46;;;;;;;5.80;5.25;;;;;;;;;;5015512;28;20629;-72
2023/06/25 16:37:50;;;;;;;6.57;5.07;;;;;;;;;;5016560;28;20185;-72
2023/06/25 16:40:55;;;;;;;5.75;5.25;;;;;;;;;;5014694;28;20219;-72
2023/06/25 16:43:59;;;;;;;8.60;5.40;;;;;;;;;;5015888;28;20188;-72
2023/06/25 16:47:05;;;;;;;6.28;5.43;;;;;;;;;;5014836;28;20179;-72
2023/06/25 16:50:09;;;;;;;6.07;5.15;;;;;;;;;;5015803;28;20182;-72
2023/06/25 16:53:13;;;;;;;5.55;5.03;;;;;;;;;;5016012;28;20177;-72
2023/06/25 16:56:17;;;;;;;7.05;5.55;;;;;;;;;;5015946;28;20186;-72
2023/06/25 16:59:21;;;;;;;9.32;6.18;;;;;;;;;;5015277;28;20210;-71
2023/06/25 17:02:26;;;;;;;6.80;5.07;;;;;;;;;;5014835;28;20215;-72
2023/06/25 17:05:30;;;;;;;8.32;5.32;;;;;;;;;;5015338;28;20203;-72
2023/06/25 17:08:34;;;;;;;5.45;4.78;;;;;;;;;;5015461;28;20192;-72
2023/06/25 17:11:38;;;;;;;7.05;4.97;;;;;;;;;;5015553;28;20692;-72
2023/06/25 17:14:43;;;;;;;7.00;4.90;;;;;;;;;;5015603;28;20182;-72
2023/06/25 17:17:47;;;;;;;5.80;5.05;;;;;;;;;;5015317;28;20184;-72
2023/06/25 17:20:51;;;;;;;5.80;5.20;;;;;;;;;;5014802;28;20572;-72
2023/06/25 17:23:55;;;;;;;5.47;4.88;;;;;;;;;;5015171;28;20533;-72
2023/06/25 17:27:01;;;;;;;6.13;5.32;;;;;;;;;;5015108;28;20176;-72
2023/06/25 17:30:06;;;;;;;5.40;4.90;;;;;;;;;;5014662;28;20177;-72
2023/06/25 17:33:10;;;;;;;5.65;4.72;;;;;;;;;;5014803;28;20184;-72
2023/06/25 17:36:15;;;;;;;6.68;5.18;;;;;;;;;;5014922;28;20176;-72
2023/06/25 17:39:19;;;;;;;5.82;5.07;;;;;;;;;;5014621;28;20192;-71
2023/06/25 17:42:23;;;;;;;8.40;5.47;;;;;;;;;;5014642;28;20222;-71
2023/06/25 17:45:27;;;;;;;5.05;4.55;;;;;;;;;;5015271;28;20192;-71
2023/06/25 17:48:31;;;;;;;4.70;4.30;;;;;;;;;;5014404;28;20202;-71
2023/06/25 17:51:35;;;;;;;4.70;4.20;;;;;;;;;;5013542;28;20215;-72
2023/06/25 17:54:39;;;;;;;5.68;4.53;;;;;;;;;;5014693;28;20179;-72
2023/06/25 17:57:44;;;;;;;5.43;4.43;;;;;;;;;;5002171;28;20179;-72
2023/06/25 18:00:48;;;;;;;6.13;3.88;;;;;;;;;;5014096;28;20209;-71
2023/06/25 18:03:52;;;;;;;6.80;4.63;;;;;;;;;;5014322;28;20518;-72
2023/06/25 18:06:56;;;;;;;7.20;4.55;;;;;;;;;;5014045;28;20551;-72
2023/06/25 18:10:00;;;;;;;8.30;4.30;;;;;;;;;;5014177;28;20187;-72
2023/06/25 18:13:04;;;;;;;4.40;4.00;;;;;;;;;;5014200;28;20217;-72
2023/06/25 18:16:08;;;;;;;5.05;4.07;;;;;;;;;;5014276;28;20177;-72
2023/06/25 18:19:13;;;;;;;5.85;4.55;;;;;;;;;;5014458;28;20182;-71
2023/06/25 18:22:17;;;;;;;5.07;4.57;;;;;;;;;;5014118;28;20218;-71
2023/06/25 18:25:21;;;;;;;4.85;3.72;;;;;;;;;;5013766;28;20182;-72
2023/06/25 18:28:26;;;;;;;5.03;4.35;;;;;;;;;;5013722;28;20183;-72